sensor_id;sensor_type;location;lat;lon;timestamp;P1;durP1;ratioP1;P2;durP2;ratioP2
33327;SDS011;19692;52.998;9.116;2023-07-31T00:00:32;6.37;;;4.10;;
33327;SDS011;19692;52.998;9.116;2023-07-31T00:02:58;10.17;;;5.00;;
33327;SDS011;19692;52.998;9.116;2023-07-31T00:05:23;7.17;;;4.43;;
33327;SDS011;19692;52.998;9.116;2023-07-31T00:07:49;10.00;;;5.07;;
33327;SDS011;19692;52.998;9.116;2023-07-31T00:10:15;7.47;;;4.73;;
33327;SDS011;19692;52.998;9.116;2023-07-31T00:12:41;9.07;;;4.60;;
33327;SDS011;19692;52.998;9.116;2023-07-31T00:15:11;7.53;;;4.47;;
33327;SDS011;19692;52.998;9.116;2023-07-31T00:17:38;9.90;;;4.57;;
33327;SDS011;19692;52.998;9.116;2023-07-31T00:20:04;8.83;;;4.63;;
33327;SDS011;19692;52.998;9.116;2023-07-31T00:22:30;10.00;;;4.53;;
33327;SDS011;19692;52.998;9.116;2023-07-31T00:24:56;12.93;;;5.10;;
33327;SDS011;19692;52.998;9.116;2023-07-31T00:27:22;9.50;;;4.63;;
33327;SDS011;19692;52.998;9.116;2023-07-31T00:29:48;11.70;;;4.50;;
33327;SDS011;19692;52.998;9.116;2023-07-31T00:32:16;8.37;;;4.10;;
33327;SDS011;19692;52.998;9.116;2023-07-31T00:34:42;9.23;;;5.73;;
33327;SDS011;19692;52.998;9.116;2023-07-31T00:37:08;8.40;;;3.80;;
33327;SDS011;19692;52.998;9.116;2023-07-31T00:39:34;8.77;;;4.47;;
33327;SDS011;19692;52.998;9.116;2023-07-31T00:42:00;8.23;;;3.93;;
33327;SDS011;19692;52.998;9.116;2023-07-31T00:44:27;7.93;;;3.70;;
33327;SDS011;19692;52.998;9.116;2023-07-31T00:46:53;5.60;;;3.50;;
33327;SDS011;19692;52.998;9.116;2023-07-31T00:49:20;6.20;;;3.30;;
33327;SDS011;19692;52.998;9.116;2023-07-31T00:51:47;6.37;;;3.67;;
33327;SDS011;19692;52.998;9.116;2023-07-31T00:54:13;7.00;;;3.80;;
33327;SDS011;19692;52.998;9.116;2023-07-31T00:56:38;6.70;;;3.40;;
33327;SDS011;19692;52.998;9.116;2023-07-31T00:59:06;8.60;;;3.53;;
33327;SDS011;19692;52.998;9.116;2023-07-31T01:01:31;10.60;;;3.60;;
33327;SDS011;19692;52.998;9.116;2023-07-31T01:03:57;6.13;;;3.37;;
33327;SDS011;19692;52.998;9.116;2023-07-31T01:06:27;7.17;;;3.10;;
33327;SDS011;19692;52.998;9.116;2023-07-31T01:12:12;4.07;;;3.30;;
33327;SDS011;19692;52.998;9.116;2023-07-31T01:14:50;6.17;;;3.77;;
33327;SDS011;19692;52.998;9.116;2023-07-31T01:17:25;4.47;;;3.20;;
33327;SDS011;19692;52.998;9.116;2023-07-31T01:19:52;7.03;;;3.50;;
33327;SDS011;19692;52.998;9.116;2023-07-31T01:22:36;6.67;;;3.83;;
33327;SDS011;19692;52.998;9.116;2023-07-31T01:25:26;5.80;;;3.07;;
33327;SDS011;19692;52.998;9.116;2023-07-31T01:28:27;5.27;;;3.20;;
33327;SDS011;19692;52.998;9.116;2023-07-31T01:31:07;5.60;;;3.87;;
33327;SDS011;19692;52.998;9.116;2023-07-31T01:33:36;4.23;;;3.10;;
33327;SDS011;19692;52.998;9.116;2023-07-31T01:36:02;5.60;;;3.40;;
33327;SDS011;19692;52.998;9.116;2023-07-31T01:38:28;5.97;;;3.17;;
33327;SDS011;19692;52.998;9.116;2023-07-31T01:40:54;5.43;;;3.20;;
33327;SDS011;19692;52.998;9.116;2023-07-31T01:43:22;5.17;;;3.20;;
33327;SDS011;19692;52.998;9.116;2023-07-31T01:45:49;3.77;;;3.20;;
33327;SDS011;19692;52.998;9.116;2023-07-31T01:48:15;4.40;;;3.27;;
33327;SDS011;19692;52.998;9.116;2023-07-31T01:50:40;4.13;;;2.97;;
33327;SDS011;19692;52.998;9.116;2023-07-31T01:53:06;3.53;;;3.23;;
33327;SDS011;19692;52.998;9.116;2023-07-31T01:55:32;5.60;;;3.10;;
33327;SDS011;19692;52.998;9.116;2023-07-31T01:57:58;5.57;;;3.13;;
33327;SDS011;19692;52.998;9.116;2023-07-31T02:00:23;5.00;;;3.03;;
33327;SDS011;19692;52.998;9.116;2023-07-31T02:02:49;5.20;;;3.50;;
33327;SDS011;19692;52.998;9.116;2023-07-31T02:05:15;4.47;;;3.33;;
33327;SDS011;19692;52.998;9.116;2023-07-31T02:07:41;4.63;;;3.27;;
33327;SDS011;19692;52.998;9.116;2023-07-31T02:10:06;4.20;;;3.50;;
33327;SDS011;19692;52.998;9.116;2023-07-31T02:12:32;5.37;;;3.80;;
33327;SDS011;19692;52.998;9.116;2023-07-31T02:14:58;4.60;;;4.20;;
33327;SDS011;19692;52.998;9.116;2023-07-31T02:17:24;5.07;;;4.57;;
33327;SDS011;19692;52.998;9.116;2023-07-31T02:19:50;4.83;;;4.33;;
33327;SDS011;19692;52.998;9.116;2023-07-31T02:22:16;5.10;;;4.40;;
33327;SDS011;19692;52.998;9.116;2023-07-31T02:24:41;5.17;;;4.63;;
33327;SDS011;19692;52.998;9.116;2023-07-31T02:27:07;6.57;;;4.93;;
33327;SDS011;19692;52.998;9.116;2023-07-31T02:29:33;5.73;;;5.10;;
33327;SDS011;19692;52.998;9.116;2023-07-31T02:31:59;8.23;;;5.87;;
33327;SDS011;19692;52.998;9.116;2023-07-31T02:34:24;9.23;;;5.70;;
33327;SDS011;19692;52.998;9.116;2023-07-31T02:36:50;5.77;;;5.23;;
33327;SDS011;19692;52.998;9.116;2023-07-31T02:39:16;6.37;;;5.57;;
33327;SDS011;19692;52.998;9.116;2023-07-31T02:41:41;6.23;;;5.47;;
33327;SDS011;19692;52.998;9.116;2023-07-31T02:44:07;7.07;;;5.83;;
33327;SDS011;19692;52.998;9.116;2023-07-31T02:46:33;7.47;;;6.03;;
33327;SDS011;19692;52.998;9.116;2023-07-31T02:48:59;7.30;;;5.87;;
33327;SDS011;19692;52.998;9.116;2023-07-31T02:51:24;9.50;;;6.53;;
33327;SDS011;19692;52.998;9.116;2023-07-31T02:53:50;6.60;;;5.83;;
33327;SDS011;19692;52.998;9.116;2023-07-31T02:56:16;7.30;;;5.93;;
33327;SDS011;19692;52.998;9.116;2023-07-31T02:58:41;7.00;;;6.40;;
33327;SDS011;19692;52.998;9.116;2023-07-31T03:01:07;5.80;;;5.30;;
33327;SDS011;19692;52.998;9.116;2023-07-31T03:03:33;7.43;;;5.63;;
33327;SDS011;19692;52.998;9.116;2023-07-31T03:05:59;5.57;;;5.07;;
33327;SDS011;19692;52.998;9.116;2023-07-31T03:08:25;5.83;;;4.60;;
33327;SDS011;19692;52.998;9.116;2023-07-31T03:10:50;5.93;;;5.33;;
33327;SDS011;19692;52.998;9.116;2023-07-31T03:13:16;5.47;;;4.97;;
33327;SDS011;19692;52.998;9.116;2023-07-31T03:15:42;5.83;;;5.13;;
33327;SDS011;19692;52.998;9.116;2023-07-31T03:18:08;6.03;;;5.33;;
33327;SDS011;19692;52.998;9.116;2023-07-31T03:20:34;6.07;;;5.47;;
33327;SDS011;19692;52.998;9.116;2023-07-31T03:23:00;6.77;;;5.33;;
33327;SDS011;19692;52.998;9.116;2023-07-31T03:25:26;5.87;;;5.30;;
33327;SDS011;19692;52.998;9.116;2023-07-31T03:27:51;5.80;;;5.23;;
33327;SDS011;19692;52.998;9.116;2023-07-31T03:30:17;5.93;;;5.30;;
33327;SDS011;19692;52.998;9.116;2023-07-31T03:32:43;5.37;;;4.87;;
33327;SDS011;19692;52.998;9.116;2023-07-31T03:35:08;6.20;;;5.40;;
33327;SDS011;19692;52.998;9.116;2023-07-31T03:37:34;5.93;;;5.33;;
33327;SDS011;19692;52.998;9.116;2023-07-31T03:40:00;6.23;;;5.63;;
33327;SDS011;19692;52.998;9.116;2023-07-31T03:42:26;6.50;;;5.90;;
33327;SDS011;19692;52.998;9.116;2023-07-31T03:44:51;7.67;;;6.93;;
33327;SDS011;19692;52.998;9.116;2023-07-31T03:47:17;7.70;;;7.00;;
33327;SDS011;19692;52.998;9.116;2023-07-31T03:49:43;8.10;;;7.23;;
33327;SDS011;19692;52.998;9.116;2023-07-31T03:52:09;8.33;;;7.53;;
33327;SDS011;19692;52.998;9.116;2023-07-31T03:54:34;8.10;;;7.30;;
33327;SDS011;19692;52.998;9.116;2023-07-31T03:57:00;8.07;;;7.30;;
33327;SDS011;19692;52.998;9.116;2023-07-31T03:59:26;8.27;;;7.50;;
33327;SDS011;19692;52.998;9.116;2023-07-31T04:01:51;9.10;;;8.20;;
33327;SDS011;19692;52.998;9.116;2023-07-31T04:04:17;9.90;;;8.47;;
33327;SDS011;19692;52.998;9.116;2023-07-31T04:06:43;8.70;;;7.97;;
33327;SDS011;19692;52.998;9.116;2023-07-31T04:09:09;10.03;;;8.83;;
33327;SDS011;19692;52.998;9.116;2023-07-31T04:11:35;9.50;;;8.50;;
33327;SDS011;19692;52.998;9.116;2023-07-31T04:14:00;9.50;;;8.07;;
33327;SDS011;19692;52.998;9.116;2023-07-31T04:16:26;9.73;;;8.73;;
33327;SDS011;19692;52.998;9.116;2023-07-31T04:18:52;9.47;;;8.57;;
33327;SDS011;19692;52.998;9.116;2023-07-31T04:21:18;10.70;;;9.70;;
33327;SDS011;19692;52.998;9.116;2023-07-31T04:23:43;10.23;;;9.23;;
33327;SDS011;19692;52.998;9.116;2023-07-31T04:26:09;10.80;;;9.43;;
33327;SDS011;19692;52.998;9.116;2023-07-31T04:28:35;10.00;;;9.00;;
33327;SDS011;19692;52.998;9.116;2023-07-31T04:31:00;11.80;;;10.70;;
33327;SDS011;19692;52.998;9.116;2023-07-31T04:33:26;11.73;;;10.50;;
33327;SDS011;19692;52.998;9.116;2023-07-31T04:35:52;12.50;;;11.30;;
33327;SDS011;19692;52.998;9.116;2023-07-31T04:38:19;11.37;;;10.37;;
33327;SDS011;19692;52.998;9.116;2023-07-31T04:40:46;12.00;;;10.80;;
33327;SDS011;19692;52.998;9.116;2023-07-31T04:43:12;12.67;;;11.57;;
33327;SDS011;19692;52.998;9.116;2023-07-31T04:45:38;12.20;;;10.90;;
33327;SDS011;19692;52.998;9.116;2023-07-31T04:48:04;13.13;;;11.90;;
33327;SDS011;19692;52.998;9.116;2023-07-31T04:50:30;14.33;;;11.70;;
33327;SDS011;19692;52.998;9.116;2023-07-31T04:52:56;12.47;;;11.20;;
33327;SDS011;19692;52.998;9.116;2023-07-31T04:55:21;12.07;;;10.87;;
33327;SDS011;19692;52.998;9.116;2023-07-31T04:57:47;11.30;;;10.20;;
33327;SDS011;19692;52.998;9.116;2023-07-31T05:00:13;11.67;;;10.67;;
33327;SDS011;19692;52.998;9.116;2023-07-31T05:02:39;11.13;;;10.23;;
33327;SDS011;19692;52.998;9.116;2023-07-31T05:05:05;11.33;;;10.33;;
33327;SDS011;19692;52.998;9.116;2023-07-31T05:07:30;9.50;;;8.67;;
33327;SDS011;19692;52.998;9.116;2023-07-31T05:09:56;9.83;;;8.87;;
33327;SDS011;19692;52.998;9.116;2023-07-31T05:12:22;11.57;;;8.80;;
33327;SDS011;19692;52.998;9.116;2023-07-31T05:14:48;9.53;;;8.63;;
33327;SDS011;19692;52.998;9.116;2023-07-31T05:17:13;9.13;;;8.23;;
33327;SDS011;19692;52.998;9.116;2023-07-31T05:19:39;8.83;;;7.87;;
33327;SDS011;19692;52.998;9.116;2023-07-31T05:22:05;8.40;;;7.60;;
33327;SDS011;19692;52.998;9.116;2023-07-31T05:24:31;8.47;;;7.70;;
33327;SDS011;19692;52.998;9.116;2023-07-31T05:26:57;7.43;;;6.77;;
33327;SDS011;19692;52.998;9.116;2023-07-31T05:29:22;7.90;;;7.10;;
33327;SDS011;19692;52.998;9.116;2023-07-31T05:31:48;7.90;;;6.67;;
33327;SDS011;19692;52.998;9.116;2023-07-31T05:34:14;6.97;;;6.10;;
33327;SDS011;19692;52.998;9.116;2023-07-31T05:36:40;6.23;;;5.67;;
33327;SDS011;19692;52.998;9.116;2023-07-31T05:39:05;5.83;;;5.33;;
33327;SDS011;19692;52.998;9.116;2023-07-31T05:41:33;5.70;;;5.20;;
33327;SDS011;19692;52.998;9.116;2023-07-31T05:44:00;4.90;;;4.50;;
33327;SDS011;19692;52.998;9.116;2023-07-31T05:46:26;4.30;;;3.90;;
33327;SDS011;19692;52.998;9.116;2023-07-31T05:48:52;5.23;;;3.90;;
33327;SDS011;19692;52.998;9.116;2023-07-31T05:51:17;4.00;;;3.60;;
33327;SDS011;19692;52.998;9.116;2023-07-31T05:53:43;3.63;;;3.33;;
33327;SDS011;19692;52.998;9.116;2023-07-31T05:56:09;4.00;;;3.20;;
33327;SDS011;19692;52.998;9.116;2023-07-31T05:58:34;3.50;;;3.20;;
33327;SDS011;19692;52.998;9.116;2023-07-31T06:01:00;3.57;;;3.27;;
33327;SDS011;19692;52.998;9.116;2023-07-31T06:03:26;4.50;;;4.10;;
33327;SDS011;19692;52.998;9.116;2023-07-31T06:05:52;3.60;;;3.30;;
33327;SDS011;19692;52.998;9.116;2023-07-31T06:08:17;3.60;;;3.30;;
33327;SDS011;19692;52.998;9.116;2023-07-31T06:10:43;3.83;;;3.50;;
33327;SDS011;19692;52.998;9.116;2023-07-31T06:13:09;3.87;;;3.57;;
33327;SDS011;19692;52.998;9.116;2023-07-31T06:15:35;4.20;;;3.80;;
33327;SDS011;19692;52.998;9.116;2023-07-31T06:18:00;3.87;;;3.57;;
33327;SDS011;19692;52.998;9.116;2023-07-31T06:20:27;4.10;;;3.80;;
33327;SDS011;19692;52.998;9.116;2023-07-31T06:22:53;4.30;;;3.90;;
33327;SDS011;19692;52.998;9.116;2023-07-31T06:25:19;4.90;;;3.80;;
33327;SDS011;19692;52.998;9.116;2023-07-31T06:27:44;3.90;;;3.60;;
33327;SDS011;19692;52.998;9.116;2023-07-31T06:30:10;4.27;;;3.30;;
33327;SDS011;19692;52.998;9.116;2023-07-31T06:32:36;3.63;;;3.33;;
33327;SDS011;19692;52.998;9.116;2023-07-31T06:35:02;3.77;;;3.47;;
33327;SDS011;19692;52.998;9.116;2023-07-31T06:37:28;3.50;;;3.10;;
33327;SDS011;19692;52.998;9.116;2023-07-31T06:39:54;3.10;;;2.90;;
33327;SDS011;19692;52.998;9.116;2023-07-31T06:42:20;3.47;;;3.03;;
33327;SDS011;19692;52.998;9.116;2023-07-31T06:44:46;2.90;;;2.70;;
33327;SDS011;19692;52.998;9.116;2023-07-31T06:47:11;2.87;;;2.67;;
33327;SDS011;19692;52.998;9.116;2023-07-31T06:49:37;3.10;;;2.90;;
33327;SDS011;19692;52.998;9.116;2023-07-31T06:52:03;2.70;;;2.50;;
33327;SDS011;19692;52.998;9.116;2023-07-31T06:54:29;3.17;;;2.60;;
33327;SDS011;19692;52.998;9.116;2023-07-31T06:56:55;2.30;;;2.10;;
33327;SDS011;19692;52.998;9.116;2023-07-31T06:59:20;2.30;;;2.10;;
33327;SDS011;19692;52.998;9.116;2023-07-31T07:01:46;2.50;;;2.30;;
33327;SDS011;19692;52.998;9.116;2023-07-31T07:04:13;1.90;;;1.80;;
33327;SDS011;19692;52.998;9.116;2023-07-31T07:06:39;2.53;;;1.90;;
33327;SDS011;19692;52.998;9.116;2023-07-31T07:09:05;1.90;;;1.80;;
33327;SDS011;19692;52.998;9.116;2023-07-31T07:11:31;2.03;;;1.83;;
33327;SDS011;19692;52.998;9.116;2023-07-31T07:13:57;1.80;;;1.70;;
33327;SDS011;19692;52.998;9.116;2023-07-31T07:16:22;2.03;;;1.77;;
33327;SDS011;19692;52.998;9.116;2023-07-31T07:18:48;1.87;;;1.60;;
33327;SDS011;19692;52.998;9.116;2023-07-31T07:21:14;1.87;;;1.77;;
33327;SDS011;19692;52.998;9.116;2023-07-31T07:23:41;1.90;;;1.80;;
33327;SDS011;19692;52.998;9.116;2023-07-31T07:26:07;1.80;;;1.70;;
33327;SDS011;19692;52.998;9.116;2023-07-31T07:28:33;2.40;;;2.00;;
33327;SDS011;19692;52.998;9.116;2023-07-31T07:30:59;2.67;;;2.47;;
33327;SDS011;19692;52.998;9.116;2023-07-31T07:33:25;2.60;;;2.37;;
33327;SDS011;19692;52.998;9.116;2023-07-31T07:35:51;3.10;;;2.60;;
33327;SDS011;19692;52.998;9.116;2023-07-31T07:38:16;2.47;;;2.20;;
33327;SDS011;19692;52.998;9.116;2023-07-31T07:40:44;3.47;;;2.60;;
33327;SDS011;19692;52.998;9.116;2023-07-31T07:43:11;3.50;;;2.83;;
33327;SDS011;19692;52.998;9.116;2023-07-31T07:45:37;4.00;;;3.07;;
33327;SDS011;19692;52.998;9.116;2023-07-31T07:48:03;5.63;;;3.90;;
33327;SDS011;19692;52.998;9.116;2023-07-31T07:50:29;6.83;;;4.00;;
33327;SDS011;19692;52.998;9.116;2023-07-31T07:52:55;5.73;;;4.57;;
33327;SDS011;19692;52.998;9.116;2023-07-31T07:55:20;6.73;;;5.00;;
33327;SDS011;19692;52.998;9.116;2023-07-31T07:57:46;7.17;;;5.60;;
33327;SDS011;19692;52.998;9.116;2023-07-31T08:00:12;7.17;;;5.57;;
33327;SDS011;19692;52.998;9.116;2023-07-31T08:02:38;8.30;;;6.20;;
33327;SDS011;19692;52.998;9.116;2023-07-31T08:05:04;8.50;;;5.87;;
33327;SDS011;19692;52.998;9.116;2023-07-31T08:07:30;12.03;;;7.27;;
33327;SDS011;19692;52.998;9.116;2023-07-31T08:09:56;13.77;;;7.67;;
33327;SDS011;19692;52.998;9.116;2023-07-31T08:12:21;15.97;;;8.00;;
33327;SDS011;19692;52.998;9.116;2023-07-31T08:14:47;14.63;;;9.10;;
33327;SDS011;19692;52.998;9.116;2023-07-31T08:17:13;16.63;;;8.33;;
33327;SDS011;19692;52.998;9.116;2023-07-31T08:19:38;16.47;;;9.53;;
33327;SDS011;19692;52.998;9.116;2023-07-31T08:22:04;16.93;;;10.83;;
33327;SDS011;19692;52.998;9.116;2023-07-31T08:24:30;19.33;;;9.83;;
33327;SDS011;19692;52.998;9.116;2023-07-31T08:26:56;18.47;;;10.37;;
33327;SDS011;19692;52.998;9.116;2023-07-31T08:29:22;20.33;;;10.63;;
33327;SDS011;19692;52.998;9.116;2023-07-31T08:31:48;17.70;;;10.10;;
33327;SDS011;19692;52.998;9.116;2023-07-31T08:34:14;20.47;;;10.93;;
33327;SDS011;19692;52.998;9.116;2023-07-31T08:36:40;20.07;;;10.30;;
33327;SDS011;19692;52.998;9.116;2023-07-31T08:39:06;16.73;;;9.83;;
33327;SDS011;19692;52.998;9.116;2023-07-31T08:41:31;19.43;;;10.27;;
33327;SDS011;19692;52.998;9.116;2023-07-31T08:44:06;19.27;;;10.47;;
33327;SDS011;19692;52.998;9.116;2023-07-31T08:46:32;17.63;;;10.17;;
33327;SDS011;19692;52.998;9.116;2023-07-31T08:48:59;21.00;;;10.80;;
33327;SDS011;19692;52.998;9.116;2023-07-31T08:51:25;18.27;;;10.27;;
33327;SDS011;19692;52.998;9.116;2023-07-31T08:53:52;22.20;;;10.37;;
33327;SDS011;19692;52.998;9.116;2023-07-31T08:56:18;23.43;;;9.07;;
33327;SDS011;19692;52.998;9.116;2023-07-31T08:58:45;20.83;;;9.93;;
33327;SDS011;19692;52.998;9.116;2023-07-31T09:01:12;21.23;;;10.40;;
33327;SDS011;19692;52.998;9.116;2023-07-31T09:03:38;14.20;;;8.93;;
33327;SDS011;19692;52.998;9.116;2023-07-31T09:06:05;18.40;;;9.13;;
33327;SDS011;19692;52.998;9.116;2023-07-31T09:08:32;14.83;;;9.27;;
33327;SDS011;19692;52.998;9.116;2023-07-31T09:10:59;14.23;;;8.63;;
33327;SDS011;19692;52.998;9.116;2023-07-31T09:13:29;18.10;;;9.33;;
33327;SDS011;19692;52.998;9.116;2023-07-31T09:15:58;14.83;;;8.37;;
33327;SDS011;19692;52.998;9.116;2023-07-31T09:18:24;14.53;;;8.87;;
33327;SDS011;19692;52.998;9.116;2023-07-31T09:23:42;10.67;;;6.90;;
33327;SDS011;19692;52.998;9.116;2023-07-31T09:26:10;11.90;;;6.83;;
33327;SDS011;19692;52.998;9.116;2023-07-31T09:28:36;9.40;;;5.60;;
33327;SDS011;19692;52.998;9.116;2023-07-31T09:31:02;13.23;;;7.20;;
33327;SDS011;19692;52.998;9.116;2023-07-31T09:33:28;11.27;;;6.10;;
33327;SDS011;19692;52.998;9.116;2023-07-31T09:35:54;11.57;;;6.03;;
33327;SDS011;19692;52.998;9.116;2023-07-31T09:38:19;9.03;;;5.67;;
33327;SDS011;19692;52.998;9.116;2023-07-31T09:40:46;8.67;;;5.63;;
33327;SDS011;19692;52.998;9.116;2023-07-31T09:43:13;8.47;;;5.53;;
33327;SDS011;19692;52.998;9.116;2023-07-31T09:45:46;10.13;;;5.63;;
33327;SDS011;19692;52.998;9.116;2023-07-31T09:48:13;8.23;;;5.20;;
33327;SDS011;19692;52.998;9.116;2023-07-31T09:50:52;9.93;;;5.63;;
33327;SDS011;19692;52.998;9.116;2023-07-31T09:53:18;8.97;;;4.97;;
33327;SDS011;19692;52.998;9.116;2023-07-31T09:55:44;8.00;;;5.10;;
33327;SDS011;19692;52.998;9.116;2023-07-31T09:58:11;8.83;;;5.27;;
33327;SDS011;19692;52.998;9.116;2023-07-31T10:00:38;9.33;;;5.07;;
33327;SDS011;19692;52.998;9.116;2023-07-31T10:03:04;9.20;;;5.47;;
33327;SDS011;19692;52.998;9.116;2023-07-31T10:05:52;7.70;;;5.17;;
33327;SDS011;19692;52.998;9.116;2023-07-31T10:08:21;7.63;;;4.73;;
33327;SDS011;19692;52.998;9.116;2023-07-31T10:10:54;8.27;;;5.13;;
33327;SDS011;19692;52.998;9.116;2023-07-31T10:13:24;10.60;;;4.90;;
33327;SDS011;19692;52.998;9.116;2023-07-31T10:15:52;7.93;;;4.70;;
33327;SDS011;19692;52.998;9.116;2023-07-31T10:18:19;8.07;;;4.17;;
33327;SDS011;19692;52.998;9.116;2023-07-31T10:20:46;8.70;;;5.33;;
33327;SDS011;19692;52.998;9.116;2023-07-31T10:23:12;6.80;;;4.50;;
33327;SDS011;19692;52.998;9.116;2023-07-31T10:25:38;5.77;;;4.37;;
33327;SDS011;19692;52.998;9.116;2023-07-31T10:28:07;7.60;;;4.23;;
33327;SDS011;19692;52.998;9.116;2023-07-31T10:30:35;6.17;;;3.63;;
33327;SDS011;19692;52.998;9.116;2023-07-31T10:33:03;6.27;;;3.80;;
33327;SDS011;19692;52.998;9.116;2023-07-31T10:35:29;7.23;;;4.47;;
33327;SDS011;19692;52.998;9.116;2023-07-31T10:37:55;5.77;;;3.50;;
33327;SDS011;19692;52.998;9.116;2023-07-31T10:40:34;8.37;;;3.50;;
33327;SDS011;19692;52.998;9.116;2023-07-31T10:43:01;5.30;;;3.50;;
33327;SDS011;19692;52.998;9.116;2023-07-31T10:48:04;5.93;;;3.30;;
33327;SDS011;19692;52.998;9.116;2023-07-31T10:51:00;4.20;;;3.17;;
33327;SDS011;19692;52.998;9.116;2023-07-31T10:53:29;4.33;;;2.90;;
33327;SDS011;19692;52.998;9.116;2023-07-31T10:55:57;4.30;;;2.97;;
33327;SDS011;19692;52.998;9.116;2023-07-31T10:58:25;3.27;;;2.63;;
33327;SDS011;19692;52.998;9.116;2023-07-31T11:00:55;4.27;;;2.83;;
33327;SDS011;19692;52.998;9.116;2023-07-31T11:03:25;4.87;;;2.80;;
33327;SDS011;19692;52.998;9.116;2023-07-31T11:06:05;2.77;;;2.53;;
33327;SDS011;19692;52.998;9.116;2023-07-31T11:08:32;3.40;;;2.60;;
33327;SDS011;19692;52.998;9.116;2023-07-31T11:13:33;3.23;;;2.40;;
33327;SDS011;19692;52.998;9.116;2023-07-31T11:16:05;3.17;;;2.30;;
33327;SDS011;19692;52.998;9.116;2023-07-31T11:18:30;2.87;;;2.17;;
33327;SDS011;19692;52.998;9.116;2023-07-31T11:20:56;5.10;;;2.40;;
33327;SDS011;19692;52.998;9.116;2023-07-31T11:23:22;2.37;;;2.17;;
33327;SDS011;19692;52.998;9.116;2023-07-31T11:25:49;2.40;;;2.20;;
33327;SDS011;19692;52.998;9.116;2023-07-31T11:28:16;2.00;;;1.90;;
33327;SDS011;19692;52.998;9.116;2023-07-31T11:30:44;3.60;;;1.90;;
33327;SDS011;19692;52.998;9.116;2023-07-31T11:33:11;2.63;;;2.50;;
33327;SDS011;19692;52.998;9.116;2023-07-31T11:35:48;2.20;;;2.00;;
33327;SDS011;19692;52.998;9.116;2023-07-31T11:38:30;3.07;;;2.40;;
33327;SDS011;19692;52.998;9.116;2023-07-31T11:41:02;2.30;;;1.97;;
33327;SDS011;19692;52.998;9.116;2023-07-31T11:43:29;2.57;;;2.37;;
33327;SDS011;19692;52.998;9.116;2023-07-31T11:45:57;2.43;;;2.10;;
33327;SDS011;19692;52.998;9.116;2023-07-31T11:50:52;2.00;;;1.90;;
33327;SDS011;19692;52.998;9.116;2023-07-31T11:53:38;2.07;;;1.90;;
33327;SDS011;19692;52.998;9.116;2023-07-31T11:56:17;2.27;;;2.17;;
33327;SDS011;19692;52.998;9.116;2023-07-31T11:58:49;3.67;;;3.47;;
33327;SDS011;19692;52.998;9.116;2023-07-31T12:01:19;3.00;;;2.80;;
33327;SDS011;19692;52.998;9.116;2023-07-31T12:03:47;2.93;;;2.73;;
33327;SDS011;19692;52.998;9.116;2023-07-31T12:06:13;2.73;;;2.53;;
33327;SDS011;19692;52.998;9.116;2023-07-31T12:08:39;2.97;;;2.60;;
33327;SDS011;19692;52.998;9.116;2023-07-31T12:11:05;3.30;;;2.73;;
33327;SDS011;19692;52.998;9.116;2023-07-31T12:13:34;2.90;;;2.70;;
33327;SDS011;19692;52.998;9.116;2023-07-31T12:16:01;3.00;;;2.80;;
33327;SDS011;19692;52.998;9.116;2023-07-31T12:18:29;2.67;;;2.47;;
33327;SDS011;19692;52.998;9.116;2023-07-31T12:21:01;2.70;;;2.50;;
33327;SDS011;19692;52.998;9.116;2023-07-31T12:23:35;2.87;;;2.67;;
33327;SDS011;19692;52.998;9.116;2023-07-31T12:28:37;2.90;;;2.70;;
33327;SDS011;19692;52.998;9.116;2023-07-31T12:31:08;2.70;;;2.50;;
33327;SDS011;19692;52.998;9.116;2023-07-31T12:33:39;2.57;;;2.37;;
33327;SDS011;19692;52.998;9.116;2023-07-31T12:36:10;3.17;;;2.90;;
33327;SDS011;19692;52.998;9.116;2023-07-31T12:38:38;2.37;;;2.27;;
33327;SDS011;19692;52.998;9.116;2023-07-31T12:41:04;2.20;;;2.10;;
33327;SDS011;19692;52.998;9.116;2023-07-31T12:43:32;1.90;;;1.80;;
33327;SDS011;19692;52.998;9.116;2023-07-31T12:46:01;2.20;;;2.10;;
33327;SDS011;19692;52.998;9.116;2023-07-31T12:48:27;2.10;;;2.00;;
33327;SDS011;19692;52.998;9.116;2023-07-31T12:50:53;2.20;;;2.10;;
33327;SDS011;19692;52.998;9.116;2023-07-31T12:53:19;2.57;;;2.37;;
33327;SDS011;19692;52.998;9.116;2023-07-31T12:55:44;2.57;;;2.37;;
33327;SDS011;19692;52.998;9.116;2023-07-31T12:58:10;5.60;;;3.00;;
33327;SDS011;19692;52.998;9.116;2023-07-31T13:00:36;3.37;;;2.83;;
33327;SDS011;19692;52.998;9.116;2023-07-31T13:03:02;2.70;;;2.50;;
33327;SDS011;19692;52.998;9.116;2023-07-31T13:05:28;3.20;;;3.00;;
33327;SDS011;19692;52.998;9.116;2023-07-31T13:07:54;2.87;;;2.10;;
33327;SDS011;19692;52.998;9.116;2023-07-31T13:10:20;4.60;;;3.00;;
33327;SDS011;19692;52.998;9.116;2023-07-31T13:12:47;2.57;;;2.37;;
33327;SDS011;19692;52.998;9.116;2023-07-31T13:15:13;2.93;;;2.57;;
33327;SDS011;19692;52.998;9.116;2023-07-31T13:17:39;4.03;;;2.50;;
33327;SDS011;19692;52.998;9.116;2023-07-31T13:20:05;3.00;;;2.70;;
33327;SDS011;19692;52.998;9.116;2023-07-31T13:22:32;2.60;;;2.40;;
33327;SDS011;19692;52.998;9.116;2023-07-31T13:24:57;2.80;;;2.60;;
33327;SDS011;19692;52.998;9.116;2023-07-31T13:27:23;4.20;;;3.00;;
33327;SDS011;19692;52.998;9.116;2023-07-31T13:29:49;3.23;;;2.93;;
33327;SDS011;19692;52.998;9.116;2023-07-31T13:32:19;3.90;;;2.97;;
33327;SDS011;19692;52.998;9.116;2023-07-31T13:34:46;3.20;;;2.90;;
33327;SDS011;19692;52.998;9.116;2023-07-31T13:37:13;3.30;;;3.00;;
33327;SDS011;19692;52.998;9.116;2023-07-31T13:39:39;3.33;;;3.03;;
33327;SDS011;19692;52.998;9.116;2023-07-31T13:42:06;3.57;;;3.27;;
33327;SDS011;19692;52.998;9.116;2023-07-31T13:44:37;4.40;;;3.60;;
33327;SDS011;19692;52.998;9.116;2023-07-31T13:47:04;3.90;;;3.50;;
33327;SDS011;19692;52.998;9.116;2023-07-31T13:49:30;3.70;;;3.40;;
33327;SDS011;19692;52.998;9.116;2023-07-31T13:51:56;3.70;;;3.27;;
33327;SDS011;19692;52.998;9.116;2023-07-31T13:54:23;3.77;;;3.47;;
33327;SDS011;19692;52.998;9.116;2023-07-31T13:56:49;4.33;;;4.03;;
33327;SDS011;19692;52.998;9.116;2023-07-31T13:59:15;3.60;;;3.30;;
33327;SDS011;19692;52.998;9.116;2023-07-31T14:01:41;4.93;;;3.30;;
33327;SDS011;19692;52.998;9.116;2023-07-31T14:04:08;5.73;;;3.60;;
33327;SDS011;19692;52.998;9.116;2023-07-31T14:06:34;5.33;;;3.40;;
33327;SDS011;19692;52.998;9.116;2023-07-31T14:09:00;4.00;;;3.60;;
33327;SDS011;19692;52.998;9.116;2023-07-31T14:11:26;4.63;;;3.67;;
33327;SDS011;19692;52.998;9.116;2023-07-31T14:13:52;4.30;;;3.90;;
33327;SDS011;19692;52.998;9.116;2023-07-31T14:16:18;4.67;;;4.27;;
33327;SDS011;19692;52.998;9.116;2023-07-31T14:18:44;4.60;;;3.93;;
33327;SDS011;19692;52.998;9.116;2023-07-31T14:21:11;4.37;;;3.97;;
33327;SDS011;19692;52.998;9.116;2023-07-31T14:23:37;4.67;;;4.27;;
33327;SDS011;19692;52.998;9.116;2023-07-31T14:26:03;4.70;;;4.30;;
33327;SDS011;19692;52.998;9.116;2023-07-31T14:28:29;4.60;;;4.20;;
33327;SDS011;19692;52.998;9.116;2023-07-31T14:30:55;4.77;;;4.37;;
33327;SDS011;19692;52.998;9.116;2023-07-31T14:33:20;4.83;;;4.20;;
33327;SDS011;19692;52.998;9.116;2023-07-31T14:35:46;5.20;;;4.70;;
33327;SDS011;19692;52.998;9.116;2023-07-31T14:38:12;4.77;;;4.33;;
33327;SDS011;19692;52.998;9.116;2023-07-31T14:40:38;5.10;;;4.70;;
33327;SDS011;19692;52.998;9.116;2023-07-31T14:43:03;5.43;;;5.03;;
33327;SDS011;19692;52.998;9.116;2023-07-31T14:45:29;5.57;;;5.07;;
33327;SDS011;19692;52.998;9.116;2023-07-31T14:47:55;7.23;;;5.07;;
33327;SDS011;19692;52.998;9.116;2023-07-31T14:50:21;4.97;;;4.57;;
33327;SDS011;19692;52.998;9.116;2023-07-31T14:52:48;5.23;;;4.73;;
33327;SDS011;19692;52.998;9.116;2023-07-31T14:55:14;5.07;;;4.57;;
33327;SDS011;19692;52.998;9.116;2023-07-31T14:57:40;5.23;;;4.73;;